Terminal Aerodrome Forecast
Issued by NWS Flagstaff, AZ

Home | Current Version | Previous Version | Text Only | Print | Product List | Glossary On
Versions: 1 2 3 4 5 6 7 8 9 10 11 12 13 14 15
000
FTUS45 KFGZ 272337
TAFFLG
TAF
KFLG 272337Z 2800/2824 22016G24KT P6SM -SHRA BKN040 BKN100
      TEMPO 2800/2804 5SM -TSRA BKN020 OVC040CB
     FM280400 24010G15KT P6SM VCSH BKN025 OVC040
      TEMPO 2804/2808 4SM -SHSNRA OVC020
     FM281300 02014G24KT P6SM SCT040=

USA.gov is the U.S. government's official web portal to all federal, state and local government web resources and services.